sensor_id;sensor_type;location;lat;lon;timestamp;pressure;altitude;pressure_sealevel;temperature;humidity
5595;BME280;1003;48.002;7.788;2023-02-02T00:02:08;100189.47;;;5.14;100.00
5595;BME280;1003;48.002;7.788;2023-02-02T00:04:36;100185.41;;;5.18;100.00
5595;BME280;1003;48.002;7.788;2023-02-02T00:07:04;100182.75;;;5.12;100.00
5595;BME280;1003;48.002;7.788;2023-02-02T00:09:32;100172.66;;;5.07;100.00
5595;BME280;1003;48.002;7.788;2023-02-02T00:12:00;100165.06;;;5.03;100.00
5595;BME280;1003;48.002;7.788;2023-02-02T00:14:27;100159.09;;;4.97;100.00
5595;BME280;1003;48.002;7.788;2023-02-02T00:16:56;100176.03;;;5.09;100.00
5595;BME280;1003;48.002;7.788;2023-02-02T00:19:27;100166.69;;;5.02;100.00
5595;BME280;1003;48.002;7.788;2023-02-02T00:21:55;100174.16;;;5.00;100.00
5595;BME280;1003;48.002;7.788;2023-02-02T00:24:24;100170.06;;;5.04;100.00
5595;BME280;1003;48.002;7.788;2023-02-02T00:26:54;100178.16;;;4.95;100.00
5595;BME280;1003;48.002;7.788;2023-02-02T00:29:25;100177.16;;;4.90;100.00
5595;BME280;1003;48.002;7.788;2023-02-02T00:31:52;100177.03;;;4.86;100.00
5595;BME280;1003;48.002;7.788;2023-02-02T00:34:21;100192.88;;;4.89;100.00
5595;BME280;1003;48.002;7.788;2023-02-02T00:36:49;100186.28;;;4.90;100.00
5595;BME280;1003;48.002;7.788;2023-02-02T00:39:20;100197.88;;;4.89;100.00
5595;BME280;1003;48.002;7.788;2023-02-02T00:41:51;100197.19;;;4.95;100.00
5595;BME280;1003;48.002;7.788;2023-02-02T00:44:18;100197.84;;;4.88;100.00
5595;BME280;1003;48.002;7.788;2023-02-02T00:47:03;100201.88;;;4.84;100.00
5595;BME280;1003;48.002;7.788;2023-02-02T00:49:31;100213.41;;;4.81;100.00
5595;BME280;1003;48.002;7.788;2023-02-02T00:51:58;100203.41;;;4.79;100.00
5595;BME280;1003;48.002;7.788;2023-02-02T00:54:25;100207.84;;;4.89;100.00
5595;BME280;1003;48.002;7.788;2023-02-02T00:56:54;100209.28;;;4.81;100.00
5595;BME280;1003;48.002;7.788;2023-02-02T00:59:21;100217.56;;;4.80;100.00
5595;BME280;1003;48.002;7.788;2023-02-02T01:01:48;100219.94;;;4.77;100.00
5595;BME280;1003;48.002;7.788;2023-02-02T01:04:15;100216.19;;;4.90;100.00
5595;BME280;1003;48.002;7.788;2023-02-02T01:06:42;100210.13;;;4.82;100.00
5595;BME280;1003;48.002;7.788;2023-02-02T01:09:09;100210.78;;;4.76;100.00
5595;BME280;1003;48.002;7.788;2023-02-02T01:11:36;100218.09;;;4.71;100.00
5595;BME280;1003;48.002;7.788;2023-02-02T01:14:05;100205.75;;;4.74;100.00
5595;BME280;1003;48.002;7.788;2023-02-02T01:16:32;100224.03;;;4.75;100.00
5595;BME280;1003;48.002;7.788;2023-02-02T01:18:59;100238.13;;;4.74;100.00
5595;BME280;1003;48.002;7.788;2023-02-02T01:21:26;100237.41;;;4.79;100.00
5595;BME280;1003;48.002;7.788;2023-02-02T01:23:53;100239.19;;;4.83;100.00
5595;BME280;1003;48.002;7.788;2023-02-02T01:26:20;100239.22;;;4.84;100.00
5595;BME280;1003;48.002;7.788;2023-02-02T01:28:47;100242.38;;;4.79;100.00
5595;BME280;1003;48.002;7.788;2023-02-02T01:31:18;100246.63;;;4.81;100.00
5595;BME280;1003;48.002;7.788;2023-02-02T01:33:48;100256.63;;;4.83;100.00
5595;BME280;1003;48.002;7.788;2023-02-02T01:36:19;100259.13;;;4.83;100.00
5595;BME280;1003;48.002;7.788;2023-02-02T01:38:48;100258.13;;;4.78;100.00
5595;BME280;1003;48.002;7.788;2023-02-02T01:41:20;100265.84;;;4.85;100.00
5595;BME280;1003;48.002;7.788;2023-02-02T01:43:57;100262.22;;;4.76;100.00
5595;BME280;1003;48.002;7.788;2023-02-02T01:46:29;100256.78;;;4.87;100.00
5595;BME280;1003;48.002;7.788;2023-02-02T01:49:03;100238.81;;;4.97;100.00
5595;BME280;1003;48.002;7.788;2023-02-02T01:51:47;100228.53;;;4.87;100.00
5595;BME280;1003;48.002;7.788;2023-02-02T01:54:30;100213.47;;;4.84;100.00
5595;BME280;1003;48.002;7.788;2023-02-02T01:57:02;100226.03;;;4.87;100.00
5595;BME280;1003;48.002;7.788;2023-02-02T01:59:32;100227.84;;;4.91;100.00
5595;BME280;1003;48.002;7.788;2023-02-02T02:02:02;100231.03;;;4.87;100.00
5595;BME280;1003;48.002;7.788;2023-02-02T02:04:31;100234.84;;;4.76;100.00
5595;BME280;1003;48.002;7.788;2023-02-02T02:06:59;100245.75;;;4.79;100.00
5595;BME280;1003;48.002;7.788;2023-02-02T02:09:27;100250.00;;;4.83;100.00
5595;BME280;1003;48.002;7.788;2023-02-02T02:11:54;100255.06;;;4.85;100.00
5595;BME280;1003;48.002;7.788;2023-02-02T02:14:22;100261.56;;;4.81;100.00
5595;BME280;1003;48.002;7.788;2023-02-02T02:17:29;100256.56;;;4.80;100.00
5595;BME280;1003;48.002;7.788;2023-02-02T02:28:42;100251.19;;;4.67;100.00
5595;BME280;1003;48.002;7.788;2023-02-02T02:31:59;100248.69;;;4.67;100.00
5595;BME280;1003;48.002;7.788;2023-02-02T02:34:45;100251.97;;;4.66;100.00
5595;BME280;1003;48.002;7.788;2023-02-02T02:37:26;100262.19;;;4.74;100.00
5595;BME280;1003;48.002;7.788;2023-02-02T02:40:02;100261.41;;;4.75;100.00
5595;BME280;1003;48.002;7.788;2023-02-02T02:42:36;100259.16;;;4.84;100.00
5595;BME280;1003;48.002;7.788;2023-02-02T02:45:09;100270.03;;;4.86;100.00
5595;BME280;1003;48.002;7.788;2023-02-02T02:47:40;100269.03;;;4.81;100.00
5595;BME280;1003;48.002;7.788;2023-02-02T02:50:08;100266.34;;;4.73;100.00
5595;BME280;1003;48.002;7.788;2023-02-02T02:52:37;100270.59;;;4.78;100.00
5595;BME280;1003;48.002;7.788;2023-02-02T02:55:07;100267.38;;;4.80;100.00
5595;BME280;1003;48.002;7.788;2023-02-02T02:58:02;100273.16;;;4.79;100.00
5595;BME280;1003;48.002;7.788;2023-02-02T03:00:45;100285.69;;;4.82;100.00
5595;BME280;1003;48.002;7.788;2023-02-02T03:03:28;100275.41;;;4.73;100.00
5595;BME280;1003;48.002;7.788;2023-02-02T03:06:07;100278.13;;;4.79;100.00
5595;BME280;1003;48.002;7.788;2023-02-02T03:08:42;100283.03;;;4.78;100.00
5595;BME280;1003;48.002;7.788;2023-02-02T03:11:13;100285.34;;;4.71;100.00
5595;BME280;1003;48.002;7.788;2023-02-02T03:13:42;100280.47;;;4.74;100.00
5595;BME280;1003;48.002;7.788;2023-02-02T03:16:10;100286.25;;;4.73;100.00
5595;BME280;1003;48.002;7.788;2023-02-02T03:18:39;100290.66;;;4.82;100.00
5595;BME280;1003;48.002;7.788;2023-02-02T03:21:06;100292.09;;;4.74;100.00
5595;BME280;1003;48.002;7.788;2023-02-02T03:23:33;100288.69;;;4.72;100.00
5595;BME280;1003;48.002;7.788;2023-02-02T03:26:01;100303.69;;;4.73;100.00
5595;BME280;1003;48.002;7.788;2023-02-02T03:28:29;100299.63;;;4.77;100.00
5595;BME280;1003;48.002;7.788;2023-02-02T03:30:59;100312.28;;;4.83;100.00
5595;BME280;1003;48.002;7.788;2023-02-02T03:33:29;100317.31;;;4.85;100.00
5595;BME280;1003;48.002;7.788;2023-02-02T03:35:57;100323.22;;;4.88;100.00
5595;BME280;1003;48.002;7.788;2023-02-02T03:38:24;100315.06;;;4.92;100.00
5595;BME280;1003;48.002;7.788;2023-02-02T03:40:51;100310.72;;;4.87;100.00
5595;BME280;1003;48.002;7.788;2023-02-02T03:43:20;100319.00;;;4.86;100.00
5595;BME280;1003;48.002;7.788;2023-02-02T03:45:47;100325.56;;;4.84;100.00
5595;BME280;1003;48.002;7.788;2023-02-02T03:48:14;100347.09;;;4.82;100.00
5595;BME280;1003;48.002;7.788;2023-02-02T03:50:41;100337.25;;;4.85;100.00
5595;BME280;1003;48.002;7.788;2023-02-02T03:53:09;100340.31;;;4.78;100.00
5595;BME280;1003;48.002;7.788;2023-02-02T03:55:36;100343.63;;;4.77;100.00
5595;BME280;1003;48.002;7.788;2023-02-02T03:58:05;100339.47;;;4.77;100.00
5595;BME280;1003;48.002;7.788;2023-02-02T04:00:32;100349.56;;;4.80;100.00
5595;BME280;1003;48.002;7.788;2023-02-02T04:02:59;100341.94;;;4.76;100.00
5595;BME280;1003;48.002;7.788;2023-02-02T04:05:26;100348.59;;;4.77;100.00
5595;BME280;1003;48.002;7.788;2023-02-02T04:07:53;100356.31;;;4.84;100.00
5595;BME280;1003;48.002;7.788;2023-02-02T04:10:22;100359.00;;;4.90;100.00
5595;BME280;1003;48.002;7.788;2023-02-02T04:12:49;100354.63;;;4.83;100.00
5595;BME280;1003;48.002;7.788;2023-02-02T04:15:16;100347.88;;;4.79;100.00
5595;BME280;1003;48.002;7.788;2023-02-02T04:17:43;100351.94;;;4.77;100.00
5595;BME280;1003;48.002;7.788;2023-02-02T04:20:11;100357.75;;;4.78;100.00
5595;BME280;1003;48.002;7.788;2023-02-02T04:22:38;100356.25;;;4.83;100.00
5595;BME280;1003;48.002;7.788;2023-02-02T04:25:06;100351.19;;;4.80;100.00
5595;BME280;1003;48.002;7.788;2023-02-02T04:27:34;100362.81;;;4.79;100.00
5595;BME280;1003;48.002;7.788;2023-02-02T04:30:02;100350.34;;;4.79;100.00
5595;BME280;1003;48.002;7.788;2023-02-02T04:32:30;100359.06;;;4.92;100.00
5595;BME280;1003;48.002;7.788;2023-02-02T04:34:57;100364.00;;;4.90;100.00
5595;BME280;1003;48.002;7.788;2023-02-02T04:37:24;100362.34;;;4.91;100.00
5595;BME280;1003;48.002;7.788;2023-02-02T04:39:51;100368.91;;;4.89;100.00
5595;BME280;1003;48.002;7.788;2023-02-02T04:42:20;100366.38;;;4.87;100.00
5595;BME280;1003;48.002;7.788;2023-02-02T04:44:48;100365.00;;;4.95;100.00
5595;BME280;1003;48.002;7.788;2023-02-02T04:47:15;100364.34;;;5.01;100.00
5595;BME280;1003;48.002;7.788;2023-02-02T04:49:42;100374.31;;;5.01;100.00
5595;BME280;1003;48.002;7.788;2023-02-02T04:52:10;100380.72;;;4.94;100.00
5595;BME280;1003;48.002;7.788;2023-02-02T04:54:37;100374.34;;;5.03;100.00
5595;BME280;1003;48.002;7.788;2023-02-02T04:57:04;100376.19;;;5.08;100.00
5595;BME280;1003;48.002;7.788;2023-02-02T04:59:31;100376.03;;;5.04;100.00
5595;BME280;1003;48.002;7.788;2023-02-02T05:02:01;100370.66;;;4.91;100.00
5595;BME280;1003;48.002;7.788;2023-02-02T05:04:28;100369.97;;;4.95;100.00
5595;BME280;1003;48.002;7.788;2023-02-02T05:06:55;100382.34;;;4.94;100.00
5595;BME280;1003;48.002;7.788;2023-02-02T05:09:22;100372.50;;;4.97;100.00
5595;BME280;1003;48.002;7.788;2023-02-02T05:11:49;100382.47;;;4.97;100.00
5595;BME280;1003;48.002;7.788;2023-02-02T05:14:16;100379.81;;;4.92;100.00
5595;BME280;1003;48.002;7.788;2023-02-02T05:16:45;100369.84;;;4.92;100.00
5595;BME280;1003;48.002;7.788;2023-02-02T05:19:13;100365.56;;;4.88;100.00
5595;BME280;1003;48.002;7.788;2023-02-02T05:21:42;100352.97;;;4.84;100.00
5595;BME280;1003;48.002;7.788;2023-02-02T05:24:11;100368.16;;;4.91;100.00
5595;BME280;1003;48.002;7.788;2023-02-02T05:26:38;100376.38;;;4.89;100.00
5595;BME280;1003;48.002;7.788;2023-02-02T05:29:05;100367.97;;;4.85;100.00
5595;BME280;1003;48.002;7.788;2023-02-02T05:31:34;100371.31;;;4.86;100.00
5595;BME280;1003;48.002;7.788;2023-02-02T05:34:01;100377.88;;;4.84;100.00
5595;BME280;1003;48.002;7.788;2023-02-02T05:36:29;100373.00;;;4.87;100.00
5595;BME280;1003;48.002;7.788;2023-02-02T05:38:56;100372.31;;;4.91;100.00
5595;BME280;1003;48.002;7.788;2023-02-02T05:41:25;100373.19;;;4.93;100.00
5595;BME280;1003;48.002;7.788;2023-02-02T05:43:52;100375.78;;;4.96;100.00
5595;BME280;1003;48.002;7.788;2023-02-02T05:46:19;100379.28;;;5.01;100.00
5595;BME280;1003;48.002;7.788;2023-02-02T05:48:46;100370.03;;;4.98;100.00
5595;BME280;1003;48.002;7.788;2023-02-02T05:51:18;100362.38;;;4.92;100.00
5595;BME280;1003;48.002;7.788;2023-02-02T05:53:47;100362.56;;;4.98;100.00
5595;BME280;1003;48.002;7.788;2023-02-02T05:56:14;100376.72;;;4.99;100.00
5595;BME280;1003;48.002;7.788;2023-02-02T05:58:42;100370.72;;;4.93;100.00
5595;BME280;1003;48.002;7.788;2023-02-02T06:01:12;100388.28;;;4.97;100.00
5595;BME280;1003;48.002;7.788;2023-02-02T06:03:39;100394.13;;;4.98;100.00
5595;BME280;1003;48.002;7.788;2023-02-02T06:06:06;100385.59;;;4.91;100.00
5595;BME280;1003;48.002;7.788;2023-02-02T06:08:34;100378.88;;;4.89;100.00
5595;BME280;1003;48.002;7.788;2023-02-02T06:11:09;100386.47;;;4.92;100.00
5595;BME280;1003;48.002;7.788;2023-02-02T06:13:36;100380.53;;;4.88;100.00
5595;BME280;1003;48.002;7.788;2023-02-02T06:16:04;100395.88;;;5.00;100.00
5595;BME280;1003;48.002;7.788;2023-02-02T06:18:32;100399.00;;;4.95;100.00
5595;BME280;1003;48.002;7.788;2023-02-02T06:21:00;100398.25;;;4.97;100.00
5595;BME280;1003;48.002;7.788;2023-02-02T06:23:28;100399.75;;;4.92;100.00
5595;BME280;1003;48.002;7.788;2023-02-02T06:25:56;100402.25;;;4.92;100.00
5595;BME280;1003;48.002;7.788;2023-02-02T06:28:24;100399.75;;;4.92;100.00
5595;BME280;1003;48.002;7.788;2023-02-02T06:30:51;100403.06;;;4.91;100.00
5595;BME280;1003;48.002;7.788;2023-02-02T06:33:18;100408.03;;;4.91;100.00
5595;BME280;1003;48.002;7.788;2023-02-02T06:35:45;100413.22;;;4.97;100.00
5595;BME280;1003;48.002;7.788;2023-02-02T06:38:12;100412.50;;;5.02;100.00
5595;BME280;1003;48.002;7.788;2023-02-02T06:40:39;100404.28;;;5.04;100.00
5595;BME280;1003;48.002;7.788;2023-02-02T06:43:07;100406.72;;;5.03;100.00
5595;BME280;1003;48.002;7.788;2023-02-02T06:45:37;100405.88;;;5.02;100.00
5595;BME280;1003;48.002;7.788;2023-02-02T06:48:05;100399.91;;;4.97;100.00
5595;BME280;1003;48.002;7.788;2023-02-02T06:50:35;100399.41;;;5.07;100.00
5595;BME280;1003;48.002;7.788;2023-02-02T06:53:03;100406.13;;;5.10;100.00
5595;BME280;1003;48.002;7.788;2023-02-02T06:55:31;100407.81;;;5.11;100.00
5595;BME280;1003;48.002;7.788;2023-02-02T06:57:59;100422.75;;;5.11;100.00
5595;BME280;1003;48.002;7.788;2023-02-02T07:00:28;100422.75;;;5.11;100.00
5595;BME280;1003;48.002;7.788;2023-02-02T07:02:57;100427.88;;;5.15;100.00
5595;BME280;1003;48.002;7.788;2023-02-02T07:05:26;100441.06;;;5.11;100.00
5595;BME280;1003;48.002;7.788;2023-02-02T07:07:53;100436.09;;;5.11;100.00
5595;BME280;1003;48.002;7.788;2023-02-02T07:10:20;100446.09;;;5.13;100.00
5595;BME280;1003;48.002;7.788;2023-02-02T07:12:47;100452.13;;;5.19;100.00
5595;BME280;1003;48.002;7.788;2023-02-02T07:15:14;100446.19;;;5.16;100.00
5595;BME280;1003;48.002;7.788;2023-02-02T07:17:41;100457.88;;;5.17;100.00
5595;BME280;1003;48.002;7.788;2023-02-02T07:20:10;100447.09;;;5.18;100.00
5595;BME280;1003;48.002;7.788;2023-02-02T07:22:38;100450.66;;;5.26;100.00
5595;BME280;1003;48.002;7.788;2023-02-02T07:25:07;100457.25;;;5.24;100.00
5595;BME280;1003;48.002;7.788;2023-02-02T07:27:34;100458.94;;;5.25;100.00
5595;BME280;1003;48.002;7.788;2023-02-02T07:30:15;100460.88;;;5.34;100.00
5595;BME280;1003;48.002;7.788;2023-02-02T07:32:46;100460.06;;;5.33;100.00
5595;BME280;1003;48.002;7.788;2023-02-02T07:35:15;100460.63;;;5.26;100.00
5595;BME280;1003;48.002;7.788;2023-02-02T07:37:42;100463.19;;;5.28;100.00
5595;BME280;1003;48.002;7.788;2023-02-02T07:40:11;100469.59;;;5.21;100.00
5595;BME280;1003;48.002;7.788;2023-02-02T07:42:38;100476.44;;;5.26;100.00
5595;BME280;1003;48.002;7.788;2023-02-02T07:45:06;100480.75;;;5.32;100.00
5595;BME280;1003;48.002;7.788;2023-02-02T07:47:33;100468.06;;;5.24;100.00
5595;BME280;1003;48.002;7.788;2023-02-02T07:50:00;100465.75;;;5.31;100.00
5595;BME280;1003;48.002;7.788;2023-02-02T07:52:29;100461.78;;;5.36;100.00
5595;BME280;1003;48.002;7.788;2023-02-02T07:54:56;100460.38;;;5.44;100.00
5595;BME280;1003;48.002;7.788;2023-02-02T07:57:23;100462.91;;;5.45;100.00
5595;BME280;1003;48.002;7.788;2023-02-02T07:59:50;100460.22;;;5.39;100.00
5595;BME280;1003;48.002;7.788;2023-02-02T08:02:19;100462.16;;;5.48;100.00
5595;BME280;1003;48.002;7.788;2023-02-02T08:04:46;100454.81;;;5.52;100.00
5595;BME280;1003;48.002;7.788;2023-02-02T08:07:13;100459.56;;;5.72;100.00
5595;BME280;1003;48.002;7.788;2023-02-02T08:09:46;100460.50;;;5.75;100.00
5595;BME280;1003;48.002;7.788;2023-02-02T08:12:13;100463.88;;;5.76;100.00
5595;BME280;1003;48.002;7.788;2023-02-02T08:14:40;100452.44;;;5.84;100.00
5595;BME280;1003;48.002;7.788;2023-02-02T08:17:08;100460.81;;;5.86;100.00
5595;BME280;1003;48.002;7.788;2023-02-02T08:19:35;100453.44;;;5.89;100.00
5595;BME280;1003;48.002;7.788;2023-02-02T08:22:02;100456.13;;;5.95;100.00
5595;BME280;1003;48.002;7.788;2023-02-02T08:24:29;100454.56;;;5.99;100.00
5595;BME280;1003;48.002;7.788;2023-02-02T08:26:57;100443.00;;;6.02;100.00
5595;BME280;1003;48.002;7.788;2023-02-02T08:29:24;100440.97;;;6.18;100.00
5595;BME280;1003;48.002;7.788;2023-02-02T08:31:51;100434.31;;;6.18;100.00
5595;BME280;1003;48.002;7.788;2023-02-02T08:34:19;100429.50;;;6.24;100.00
5595;BME280;1003;48.002;7.788;2023-02-02T08:36:46;100430.38;;;6.26;100.00
5595;BME280;1003;48.002;7.788;2023-02-02T08:39:13;100429.06;;;6.39;100.00
5595;BME280;1003;48.002;7.788;2023-02-02T08:41:40;100429.31;;;6.48;100.00
5595;BME280;1003;48.002;7.788;2023-02-02T08:44:13;100423.72;;;6.57;100.00
5595;BME280;1003;48.002;7.788;2023-02-02T08:46:41;100415.31;;;6.55;100.00
5595;BME280;1003;48.002;7.788;2023-02-02T08:49:10;100407.63;;;6.46;100.00
5595;BME280;1003;48.002;7.788;2023-02-02T08:51:37;100422.22;;;6.64;100.00
5595;BME280;1003;48.002;7.788;2023-02-02T08:54:04;100408.25;;;6.72;100.00
5595;BME280;1003;48.002;7.788;2023-02-02T08:56:31;100402.00;;;6.88;100.00
5595;BME280;1003;48.002;7.788;2023-02-02T08:58:58;100405.66;;;7.00;100.00
5595;BME280;1003;48.002;7.788;2023-02-02T09:01:30;100403.22;;;7.03;100.00
5595;BME280;1003;48.002;7.788;2023-02-02T09:04:00;100393.78;;;6.93;100.00
5595;BME280;1003;48.002;7.788;2023-02-02T09:06:32;100393.69;;;6.89;100.00
5595;BME280;1003;48.002;7.788;2023-02-02T09:08:59;100401.25;;;6.92;100.00
5595;BME280;1003;48.002;7.788;2023-02-02T09:11:27;100403.25;;;7.05;100.00
5595;BME280;1003;48.002;7.788;2023-02-02T09:13:56;100398.44;;;7.13;100.00
5595;BME280;1003;48.002;7.788;2023-02-02T09:16:25;100401.03;;;7.17;100.00
5595;BME280;1003;48.002;7.788;2023-02-02T09:18:54;100406.03;;;7.17;100.00
5595;BME280;1003;48.002;7.788;2023-02-02T09:21:22;100397.69;;;7.17;100.00
5595;BME280;1003;48.002;7.788;2023-02-02T09:23:51;100386.81;;;7.15;100.00
5595;BME280;1003;48.002;7.788;2023-02-02T09:26:22;100392.28;;;7.34;100.00
5595;BME280;1003;48.002;7.788;2023-02-02T09:28:52;100393.06;;;7.32;100.00
5595;BME280;1003;48.002;7.788;2023-02-02T09:31:19;100375.25;;;7.20;100.00
5595;BME280;1003;48.002;7.788;2023-02-02T09:33:47;100382.19;;;7.31;100.00
5595;BME280;1003;48.002;7.788;2023-02-02T09:36:18;100375.38;;;7.26;100.00
5595;BME280;1003;48.002;7.788;2023-02-02T09:38:47;100373.69;;;7.23;100.00
5595;BME280;1003;48.002;7.788;2023-02-02T09:44:59;100370.31;;;7.21;100.00
5595;BME280;1003;48.002;7.788;2023-02-02T09:47:50;100384.66;;;7.30;100.00
5595;BME280;1003;48.002;7.788;2023-02-02T09:50:37;100375.84;;;7.09;100.00
5595;BME280;1003;48.002;7.788;2023-02-02T09:53:28;100383.06;;;7.32;100.00
5595;BME280;1003;48.002;7.788;2023-02-02T09:56:03;100380.38;;;7.24;100.00
5595;BME280;1003;48.002;7.788;2023-02-02T09:58:35;100375.25;;;7.20;100.00
5595;BME280;1003;48.002;7.788;2023-02-02T10:01:08;100381.03;;;7.17;100.00
5595;BME280;1003;48.002;7.788;2023-02-02T10:03:48;100373.66;;;7.22;100.00
5595;BME280;1003;48.002;7.788;2023-02-02T10:06:29;100375.97;;;7.14;100.00
5595;BME280;1003;48.002;7.788;2023-02-02T10:09:16;100391.94;;;7.21;100.00
5595;BME280;1003;48.002;7.788;2023-02-02T10:11:53;100392.69;;;7.17;100.00
5595;BME280;1003;48.002;7.788;2023-02-02T10:14:26;100392.69;;;7.17;100.00
5595;BME280;1003;48.002;7.788;2023-02-02T10:17:02;100401.75;;;7.12;100.00
5595;BME280;1003;48.002;7.788;2023-02-02T10:19:36;100399.91;;;7.04;100.00
5595;BME280;1003;48.002;7.788;2023-02-02T10:22:11;100411.66;;;7.08;100.00
5595;BME280;1003;48.002;7.788;2023-02-02T10:24:42;100415.91;;;7.11;100.00
5595;BME280;1003;48.002;7.788;2023-02-02T10:27:15;100409.44;;;7.21;100.00
5595;BME280;1003;48.002;7.788;2023-02-02T10:29:52;100410.34;;;7.23;100.00
5595;BME280;1003;48.002;7.788;2023-02-02T10:32:25;100407.13;;;7.27;100.00
5595;BME280;1003;48.002;7.788;2023-02-02T10:35:10;100409.66;;;7.30;100.00
5595;BME280;1003;48.002;7.788;2023-02-02T10:37:48;100406.22;;;7.25;100.00
5595;BME280;1003;48.002;7.788;2023-02-02T10:40:36;100407.91;;;7.26;100.00
5595;BME280;1003;48.002;7.788;2023-02-02T10:43:26;100413.50;;;7.16;100.00
5595;BME280;1003;48.002;7.788;2023-02-02T10:46:18;100418.09;;;7.33;100.00
5595;BME280;1003;48.002;7.788;2023-02-02T10:48:48;100404.63;;;7.27;100.00
5595;BME280;1003;48.002;7.788;2023-02-02T10:51:23;100408.75;;;7.26;100.00
5595;BME280;1003;48.002;7.788;2023-02-02T10:53:54;100413.50;;;7.16;100.00
5595;BME280;1003;48.002;7.788;2023-02-02T10:56:33;100414.25;;;7.12;100.00
5595;BME280;1003;48.002;7.788;2023-02-02T10:59:06;100423.44;;;7.13;100.00
5595;BME280;1003;48.002;7.788;2023-02-02T11:01:35;100439.72;;;6.97;100.00
5595;BME280;1003;48.002;7.788;2023-02-02T11:04:03;100432.09;;;6.92;100.00
5595;BME280;1003;48.002;7.788;2023-02-02T11:06:47;100446.28;;;6.93;100.00
5595;BME280;1003;48.002;7.788;2023-02-02T11:09:20;100443.63;;;6.87;100.00
5595;BME280;1003;48.002;7.788;2023-02-02T11:11:53;100439.47;;;6.88;100.00
5595;BME280;1003;48.002;7.788;2023-02-02T11:14:33;100441.94;;;6.86;100.00
5595;BME280;1003;48.002;7.788;2023-02-02T11:17:04;100448.03;;;6.96;100.00
5595;BME280;1003;48.002;7.788;2023-02-02T11:19:34;100434.72;;;6.97;100.00
5595;BME280;1003;48.002;7.788;2023-02-02T11:22:03;100433.06;;;6.97;100.00
5595;BME280;1003;48.002;7.788;2023-02-02T11:24:43;100432.56;;;7.10;100.00
5595;BME280;1003;48.002;7.788;2023-02-02T11:27:17;100413.50;;;7.16;100.00
5595;BME280;1003;48.002;7.788;2023-02-02T11:29:49;100401.44;;;7.34;100.00
5595;BME280;1003;48.002;7.788;2023-02-02T11:32:25;100395.09;;;7.48;100.00
5595;BME280;1003;48.002;7.788;2023-02-02T11:35:19;100398.66;;;7.59;100.00
5595;BME280;1003;48.002;7.788;2023-02-02T11:37:59;100399.66;;;7.68;100.00
5595;BME280;1003;48.002;7.788;2023-02-02T11:40:31;100380.94;;;7.50;100.00
5595;BME280;1003;48.002;7.788;2023-02-02T11:43:04;100377.72;;;7.56;100.00
5595;BME280;1003;48.002;7.788;2023-02-02T11:45:41;100383.56;;;7.55;100.00
5595;BME280;1003;48.002;7.788;2023-02-02T11:48:16;100384.28;;;7.51;100.00
5595;BME280;1003;48.002;7.788;2023-02-02T11:50:46;100386.34;;;7.31;100.00
5595;BME280;1003;48.002;7.788;2023-02-02T11:53:24;100376.88;;;7.18;100.00
5595;BME280;1003;48.002;7.788;2023-02-02T11:55:53;100375.94;;;7.13;100.00
5595;BME280;1003;48.002;7.788;2023-02-02T11:58:25;100385.81;;;7.08;100.00
5595;BME280;1003;48.002;7.788;2023-02-02T12:01:01;100388.28;;;7.06;100.00
5595;BME280;1003;48.002;7.788;2023-02-02T12:03:33;100389.16;;;7.08;100.00
5595;BME280;1003;48.002;7.788;2023-02-02T12:06:19;100389.16;;;7.08;100.00
5595;BME280;1003;48.002;7.788;2023-02-02T12:08:47;100389.25;;;7.12;100.00
5595;BME280;1003;48.002;7.788;2023-02-02T12:11:33;100401.50;;;7.01;100.00
5595;BME280;1003;48.002;7.788;2023-02-02T12:14:22;100385.56;;;6.97;100.00
5595;BME280;1003;48.002;7.788;2023-02-02T12:17:11;100390.59;;;6.99;100.00
5595;BME280;1003;48.002;7.788;2023-02-02T12:20:05;100396.38;;;6.96;100.00
5595;BME280;1003;48.002;7.788;2023-02-02T12:23:18;100391.19;;;6.89;100.00
5595;BME280;1003;48.002;7.788;2023-02-02T12:26:13;100401.13;;;6.86;100.00
5595;BME280;1003;48.002;7.788;2023-02-02T12:29:33;100392.00;;;6.88;100.00
5595;BME280;1003;48.002;7.788;2023-02-02T12:32:18;100394.38;;;6.83;100.00
5595;BME280;1003;48.002;7.788;2023-02-02T12:35:03;100397.69;;;6.82;100.00
5595;BME280;1003;48.002;7.788;2023-02-02T12:37:50;100404.31;;;6.80;100.00
5595;BME280;1003;48.002;7.788;2023-02-02T12:40:39;100397.78;;;6.85;100.00
5595;BME280;1003;48.002;7.788;2023-02-02T12:43:24;100403.59;;;6.84;100.00
5595;BME280;1003;48.002;7.788;2023-02-02T12:46:29;100397.19;;;6.95;100.00
5595;BME280;1003;48.002;7.788;2023-02-02T12:49:27;100391.25;;;6.90;100.00
5595;BME280;1003;48.002;7.788;2023-02-02T12:52:19;100389.59;;;6.91;100.00
5595;BME280;1003;48.002;7.788;2023-02-02T12:55:09;100392.22;;;6.97;100.00
5595;BME280;1003;48.002;7.788;2023-02-02T12:57:58;100377.81;;;6.87;100.00
5595;BME280;1003;48.002;7.788;2023-02-02T13:00:53;100390.28;;;6.85;100.00
5595;BME280;1003;48.002;7.788;2023-02-02T13:03:37;100387.00;;;6.88;100.00
5595;BME280;1003;48.002;7.788;2023-02-02T13:06:51;100380.28;;;6.85;100.00
5595;BME280;1003;48.002;7.788;2023-02-02T13:09:29;100400.44;;;6.91;100.00
5595;BME280;1003;48.002;7.788;2023-02-02T13:12:06;100384.13;;;7.07;100.00
5595;BME280;1003;48.002;7.788;2023-02-02T13:14:40;100386.63;;;7.07;100.00
5595;BME280;1003;48.002;7.788;2023-02-02T13:17:17;100373.75;;;6.90;100.00
5595;BME280;1003;48.002;7.788;2023-02-02T13:19:51;100373.69;;;6.89;100.00
5595;BME280;1003;48.002;7.788;2023-02-02T13:22:25;100387.94;;;6.91;100.00
5595;BME280;1003;48.002;7.788;2023-02-02T13:24:59;100388.59;;;6.84;100.00
5595;BME280;1003;48.002;7.788;2023-02-02T13:27:29;100386.88;;;6.83;100.00
5595;BME280;1003;48.002;7.788;2023-02-02T13:30:02;100392.09;;;6.91;100.00
5595;BME280;1003;48.002;7.788;2023-02-02T13:32:35;100389.63;;;6.92;100.00
5595;BME280;1003;48.002;7.788;2023-02-02T13:35:12;100398.09;;;6.99;100.00
5595;BME280;1003;48.002;7.788;2023-02-02T13:37:48;100390.47;;;6.93;100.00
5595;BME280;1003;48.002;7.788;2023-02-02T13:40:26;100403.06;;;6.97;100.00
5595;BME280;1003;48.002;7.788;2023-02-02T13:43:11;100403.00;;;6.94;100.00
5595;BME280;1003;48.002;7.788;2023-02-02T13:45:54;100402.91;;;6.90;100.00
5595;BME280;1003;48.002;7.788;2023-02-02T13:48:36;100411.88;;;6.83;100.00
5595;BME280;1003;48.002;7.788;2023-02-02T13:51:45;100420.03;;;6.76;100.00